Time;durP1;ratioP1;P1;durP2;ratioP2;P2;SDS_P1;SDS_P2;PMS_P1;PMS_P2;Temp;Humidity;BMP_temperature;BMP_pressure;BME280_temperature;BME280_humidity;BME280_pressure;Samples;Min_cycle;Max_cycle;Signal;HPM_P1;HPM_P2
2023/03/22 00:00:26;;;;;;;5.18;3.20;;;8.20;99.90;;;;;;4960226;28;20027;-68
2023/03/22 00:02:52;;;;;;;6.10;3.40;;;8.30;99.90;;;;;;4960209;28;20058;-68
2023/03/22 00:05:18;;;;;;;8.50;3.90;;;8.30;99.90;;;;;;4961191;28;20024;-68
2023/03/22 00:07:43;;;;;;;5.88;2.95;;;8.30;99.90;;;;;;4964543;28;20041;-68
2023/03/22 00:10:10;;;;;;;7.50;3.53;;;8.30;99.90;;;;;;4969921;28;20027;-66
2023/03/22 00:12:35;;;;;;;4.65;2.78;;;8.40;99.90;;;;;;4967785;28;20062;-66
2023/03/22 00:15:01;;;;;;;10.70;3.78;;;8.40;99.90;;;;;;4969375;28;20066;-69
2023/03/22 00:17:27;;;;;;;6.07;4.00;;;8.40;99.90;;;;;;4964554;28;20027;-69
2023/03/22 00:19:53;;;;;;;7.75;3.47;;;8.50;99.90;;;;;;4963459;28;20027;-68
2023/03/22 00:22:19;;;;;;;9.32;3.65;;;8.50;99.90;;;;;;4954373;28;20042;-68
2023/03/22 00:24:45;;;;;;;9.45;3.63;;;8.50;99.90;;;;;;4959042;28;20444;-66
2023/03/22 00:27:11;;;;;;;10.95;3.70;;;8.50;99.90;;;;;;4962591;28;20023;-66
2023/03/22 00:29:37;;;;;;;8.25;3.40;;;8.50;99.90;;;;;;4966099;28;20030;-67
2023/03/22 00:32:03;;;;;;;8.05;3.22;;;8.50;99.90;;;;;;4961830;28;20030;-66
2023/03/22 00:34:32;;;;;;;10.23;3.75;;;8.50;99.90;;;;;;4965349;28;20029;-66
2023/03/22 00:36:57;;;;;;;7.95;3.75;;;8.50;99.90;;;;;;4964232;28;20563;-66
2023/03/22 00:39:23;;;;;;;9.32;4.15;;;8.50;99.90;;;;;;4967167;28;20050;-69
2023/03/22 00:41:50;;;;;;;9.43;4.35;;;8.50;99.90;;;;;;4943922;28;20047;-68
2023/03/22 00:44:15;;;;;;;8.82;4.13;;;8.50;99.90;;;;;;4958903;28;20035;-66
2023/03/22 00:46:41;;;;;;;7.07;3.75;;;8.50;99.90;;;;;;4959564;28;20023;-66
2023/03/22 00:49:06;;;;;;;8.50;4.57;;;8.50;99.90;;;;;;4967494;28;20459;-66
2023/03/22 00:51:32;;;;;;;5.78;3.47;;;8.50;99.90;;;;;;4964380;28;20114;-66
2023/03/22 00:53:57;;;;;;;7.63;4.03;;;8.50;99.90;;;;;;4966609;28;20431;-68
2023/03/22 00:56:24;;;;;;;9.55;4.30;;;8.50;99.90;;;;;;4964628;28;20296;-69
2023/03/22 00:58:50;;;;;;;6.97;4.03;;;8.50;99.90;;;;;;4961113;28;20027;-69
2023/03/22 01:01:15;;;;;;;8.00;4.10;;;8.50;99.90;;;;;;4959070;28;20605;-69
2023/03/22 01:03:42;;;;;;;8.02;3.80;;;8.40;99.90;;;;;;4962055;28;20042;-68
2023/03/22 01:06:08;;;;;;;8.60;4.13;;;8.40;99.90;;;;;;4957380;28;20043;-71
2023/03/22 01:08:37;;;;;;;10.77;4.85;;;8.40;99.90;;;;;;4963933;28;20184;-67
2023/03/22 01:11:05;;;;;;;8.02;4.30;;;8.30;99.90;;;;;;4961637;28;20022;-66
2023/03/22 01:13:30;;;;;;;12.50;4.88;;;8.30;99.90;;;;;;4964502;28;20124;-66
2023/03/22 01:15:56;;;;;;;8.70;4.10;;;8.30;99.90;;;;;;4960018;28;20918;-66
2023/03/22 01:18:22;;;;;;;10.30;4.43;;;8.30;99.90;;;;;;4958602;28;20126;-66
2023/03/22 01:20:47;;;;;;;13.88;6.13;;;8.30;99.90;;;;;;4964713;28;20473;-68
2023/03/22 01:23:13;;;;;;;11.95;4.63;;;8.20;99.90;;;;;;4958382;28;20046;-67
2023/03/22 01:25:39;;;;;;;9.27;4.90;;;8.20;99.90;;;;;;4959985;28;20046;-65
2023/03/22 01:28:05;;;;;;;12.65;4.68;;;8.20;99.90;;;;;;4963734;28;20027;-65
2023/03/22 01:30:31;;;;;;;10.98;5.60;;;8.20;99.90;;;;;;4961560;28;20042;-64
2023/03/22 01:32:56;;;;;;;11.35;4.90;;;8.30;99.90;;;;;;4964834;28;20481;-65
2023/03/22 01:35:23;;;;;;;8.52;5.72;;;8.30;99.90;;;;;;4966296;28;20042;-66
2023/03/22 01:37:48;;;;;;;9.18;4.45;;;8.30;99.90;;;;;;4965765;28;20397;-64
2023/03/22 01:40:15;;;;;;;10.23;5.50;;;8.40;99.90;;;;;;4968218;28;20033;-64
2023/03/22 01:42:40;;;;;;;9.85;6.05;;;8.30;99.90;;;;;;4943752;28;20047;-68
2023/03/22 01:45:12;;;;;;;14.07;5.45;;;8.40;99.90;;;;;;4951436;28;20370;-65
2023/03/22 01:47:55;;;;;;;12.98;5.57;;;8.40;99.90;;;;;;4980341;28;20026;-66
2023/03/22 01:50:22;;;;;;;9.70;5.50;;;8.40;99.90;;;;;;4966755;28;20030;-67
2023/03/22 01:52:49;;;;;;;11.45;6.05;;;8.50;99.90;;;;;;4958798;28;20360;-65
2023/03/22 01:55:17;;;;;;;11.90;5.43;;;8.50;99.90;;;;;;4958765;28;20085;-66
2023/03/22 01:57:43;;;;;;;11.45;5.35;;;8.50;99.90;;;;;;4959383;28;20110;-65
2023/03/22 02:00:14;;;;;;;19.17;5.18;;;8.50;99.90;;;;;;4963133;28;20065;-69
2023/03/22 02:02:43;;;;;;;9.05;5.18;;;8.50;99.90;;;;;;4961045;28;20026;-68
2023/03/22 02:05:11;;;;;;;12.25;5.97;;;8.50;99.90;;;;;;4956711;28;20039;-66
2023/03/22 02:07:38;;;;;;;14.05;5.85;;;8.50;99.90;;;;;;4957153;28;20106;-69
2023/03/22 02:10:15;;;;;;;12.25;5.30;;;8.50;99.90;;;;;;4962799;28;20015;-68
2023/03/22 02:13:02;;;;;;;13.32;5.35;;;8.50;99.90;;;;;;4965208;28;20023;-68
2023/03/22 02:15:39;;;;;;;11.93;5.20;;;8.50;99.90;;;;;;4960386;28;20485;-66
2023/03/22 02:18:28;;;;;;;10.65;5.57;;;8.60;99.90;;;;;;4961193;28;20043;-65
2023/03/22 02:21:20;;;;;;;10.85;5.97;;;8.50;99.90;;;;;;4960735;28;20104;-68
2023/03/22 02:24:33;;;;;;;12.65;5.07;;;8.50;99.90;;;;;;4952617;28;20047;-68
2023/03/22 02:27:29;;;;;;;11.18;5.22;;;8.50;99.90;;;;;;4952595;28;20068;-65
2023/03/22 02:30:11;;;;;;;10.15;6.38;;;8.50;99.90;;;;;;4958144;28;20027;-68
2023/03/22 02:33:14;;;;;;;14.18;6.00;;;8.50;99.90;;;;;;4960232;28;20122;-66
2023/03/22 02:36:07;;;;;;;11.75;5.32;;;8.50;99.90;;;;;;4964750;28;20360;-66
2023/03/22 02:38:56;;;;;;;9.95;5.43;;;8.40;99.90;;;;;;4967868;28;20035;-68
2023/03/22 02:41:40;;;;;;;10.63;5.63;;;8.40;99.90;;;;;;4941903;28;20028;-66
2023/03/22 02:44:18;;;;;;;12.00;6.10;;;8.40;99.90;;;;;;4956701;28;20038;-68
2023/03/22 02:46:51;;;;;;;12.13;5.88;;;8.40;99.90;;;;;;4964697;28;20076;-69
2023/03/22 02:49:38;;;;;;;10.15;5.68;;;8.40;99.90;;;;;;4955174;28;20028;-68
2023/03/22 02:52:38;;;;;;;12.43;6.57;;;8.40;99.90;;;;;;4965468;28;20118;-69
2023/03/22 02:55:26;;;;;;;10.88;5.63;;;8.40;99.90;;;;;;4963255;28;20477;-65
2023/03/22 02:58:11;;;;;;;12.63;5.00;;;8.40;99.90;;;;;;4962911;28;20077;-68
2023/03/22 03:00:38;;;;;;;13.32;5.88;;;8.30;99.90;;;;;;4957145;28;20031;-67
2023/03/22 03:03:10;;;;;;;14.60;6.57;;;8.20;99.90;;;;;;4961309;28;20027;-68
2023/03/22 03:05:48;;;;;;;16.63;5.82;;;8.10;99.90;;;;;;4960893;28;20038;-68
2023/03/22 03:08:16;;;;;;;13.90;6.28;;;8.20;99.90;;;;;;4962289;28;20030;-68
2023/03/22 03:10:44;;;;;;;10.98;5.75;;;8.10;99.90;;;;;;4963312;28;20501;-68
2023/03/22 03:13:15;;;;;;;10.18;5.30;;;8.10;99.90;;;;;;4962809;28;20105;-66
2023/03/22 03:15:42;;;;;;;9.43;5.65;;;8.00;99.90;;;;;;4961716;28;20046;-69
2023/03/22 03:18:31;;;;;;;8.70;5.85;;;7.90;99.90;;;;;;4964327;28;20038;-69
2023/03/22 03:21:13;;;;;;;11.73;6.03;;;7.90;99.90;;;;;;4964172;28;20113;-66
2023/03/22 03:23:45;;;;;;;16.65;5.85;;;7.80;99.90;;;;;;4963078;28;20034;-68
2023/03/22 03:26:45;;;;;;;11.35;5.85;;;7.80;99.90;;;;;;4964353;28;20027;-67
2023/03/22 03:29:15;;;;;;;10.98;6.63;;;7.70;99.90;;;;;;4953168;28;20062;-67
2023/03/22 03:31:48;;;;;;;17.23;6.22;;;7.70;99.90;;;;;;4954113;28;20053;-64
2023/03/22 03:34:25;;;;;;;19.08;7.45;;;7.60;99.90;;;;;;4954873;28;20484;-67
2023/03/22 03:37:17;;;;;;;15.82;6.80;;;7.60;99.90;;;;;;4953908;28;20744;-67
2023/03/22 03:40:10;;;;;;;18.40;6.20;;;7.50;99.90;;;;;;4952958;28;20043;-67
2023/03/22 03:42:56;;;;;;;11.27;7.13;;;7.50;99.90;;;;;;4930202;28;20074;-67
2023/03/22 03:45:23;;;;;;;22.48;7.15;;;7.40;99.90;;;;;;4946665;28;20122;-67
2023/03/22 03:47:55;;;;;;;17.50;7.68;;;7.30;99.90;;;;;;4949746;28;20553;-66
2023/03/22 03:50:22;;;;;;;14.30;6.97;;;7.30;99.90;;;;;;4953047;28;20034;-66
2023/03/22 03:52:48;;;;;;;16.30;8.48;;;7.30;99.90;;;;;;4958106;28;20084;-67
2023/03/22 03:55:14;;;;;;;17.70;7.07;;;7.20;99.90;;;;;;4946793;28;20042;-64
2023/03/22 03:57:40;;;;;;;18.98;7.93;;;7.20;99.90;;;;;;4950546;28;20496;-64
2023/03/22 04:00:06;;;;;;;13.38;7.10;;;7.20;99.90;;;;;;4951914;28;20035;-65
2023/03/22 04:02:32;;;;;;;19.27;8.20;;;7.20;99.90;;;;;;4953397;28;20124;-65
2023/03/22 04:04:57;;;;;;;15.70;8.20;;;7.20;99.90;;;;;;4950014;28;20129;-65
2023/03/22 04:07:23;;;;;;;17.92;7.75;;;7.30;99.90;;;;;;4954321;28;20031;-64
2023/03/22 04:09:49;;;;;;;17.42;8.20;;;7.30;99.90;;;;;;4954444;28;20476;-65
2023/03/22 04:12:14;;;;;;;16.40;8.10;;;7.30;99.90;;;;;;4960859;28;20042;-65
2023/03/22 04:14:40;;;;;;;16.15;8.35;;;7.30;99.90;;;;;;4957501;28;20393;-64
2023/03/22 04:17:06;;;;;;;15.50;7.50;;;7.30;99.90;;;;;;4952959;28;20770;-65
2023/03/22 04:19:32;;;;;;;19.88;9.52;;;7.30;99.90;;;;;;4952804;28;20035;-65
2023/03/22 04:21:59;;;;;;;16.42;7.88;;;7.30;99.90;;;;;;4953639;28;20034;-64
2023/03/22 04:24:25;;;;;;;20.15;8.93;;;7.40;99.90;;;;;;4957193;28;20037;-65
2023/03/22 04:26:51;;;;;;;19.48;8.38;;;7.40;99.90;;;;;;4951878;28;20121;-64
2023/03/22 04:29:17;;;;;;;17.08;8.57;;;7.40;99.90;;;;;;4951852;28;20113;-65
2023/03/22 04:31:42;;;;;;;17.67;9.40;;;7.40;99.90;;;;;;4954412;28;20512;-64
2023/03/22 04:34:08;;;;;;;17.42;8.80;;;7.40;99.90;;;;;;4949292;28;20041;-64
2023/03/22 04:36:38;;;;;;;20.25;9.10;;;7.40;99.90;;;;;;4953425;28;21246;-64
2023/03/22 04:39:06;;;;;;;15.38;8.25;;;7.50;99.90;;;;;;4952393;28;20026;-64
2023/03/22 04:41:32;;;;;;;17.98;9.00;;;7.50;99.90;;;;;;4950961;28;20043;-65
2023/03/22 04:44:02;;;;;;;18.25;8.48;;;7.50;99.90;;;;;;4927668;28;20062;-64
2023/03/22 04:46:32;;;;;;;17.73;8.60;;;7.50;99.90;;;;;;4950156;28;20112;-65
2023/03/22 04:48:58;;;;;;;18.52;8.20;;;7.50;99.90;;;;;;4948138;28;20127;-65
2023/03/22 04:51:25;;;;;;;32.55;8.30;;;7.50;99.90;;;;;;4952807;28;20031;-67
2023/03/22 04:53:51;;;;;;;18.23;7.65;;;7.50;99.90;;;;;;4951018;28;20019;-67
2023/03/22 04:56:17;;;;;;;14.05;7.75;;;7.50;99.90;;;;;;4956623;28;20038;-68
2023/03/22 04:58:44;;;;;;;18.65;8.57;;;7.40;99.90;;;;;;4965800;28;20392;-64
2023/03/22 05:01:11;;;;;;;19.17;8.32;;;7.40;99.90;;;;;;4957198;28;21245;-64
2023/03/22 05:03:37;;;;;;;16.25;7.68;;;7.40;99.90;;;;;;4954015;28;20038;-64
2023/03/22 05:06:05;;;;;;;16.08;8.27;;;7.40;99.90;;;;;;4952221;28;20035;-65
2023/03/22 05:08:31;;;;;;;13.60;7.28;;;7.30;99.90;;;;;;4957046;28;20055;-65
2023/03/22 05:10:58;;;;;;;12.68;7.22;;;7.40;99.90;;;;;;4951577;28;20399;-63
2023/03/22 05:13:26;;;;;;;16.58;7.88;;;7.40;99.90;;;;;;4961337;28;20030;-67
2023/03/22 05:15:52;;;;;;;16.02;7.32;;;7.40;99.90;;;;;;4952663;28;20568;-67
2023/03/22 05:18:19;;;;;;;14.20;7.57;;;7.40;99.90;;;;;;4953778;28;20158;-64
2023/03/22 05:20:46;;;;;;;15.48;8.20;;;7.40;99.90;;;;;;4955738;28;20059;-67
2023/03/22 05:23:18;;;;;;;18.88;5.97;;;7.40;99.90;;;;;;4953105;28;20027;-66
2023/03/22 05:25:45;;;;;;;12.77;6.90;;;7.40;99.90;;;;;;4955123;28;20042;-67
2023/03/22 05:28:13;;;;;;;16.15;7.22;;;7.50;99.90;;;;;;4958970;28;20030;-68
2023/03/22 05:30:40;;;;;;;13.32;7.30;;;7.60;99.90;;;;;;4950983;28;20392;-67
2023/03/22 05:33:07;;;;;;;17.92;6.35;;;7.60;99.90;;;;;;4952113;28;20035;-64
2023/03/22 05:35:34;;;;;;;17.20;6.88;;;7.60;99.90;;;;;;4954699;28;20508;-65
2023/03/22 05:38:00;;;;;;;15.35;6.93;;;7.70;99.90;;;;;;4949596;28;20074;-65
2023/03/22 05:40:26;;;;;;;22.35;6.82;;;7.70;99.90;;;;;;4953611;28;20130;-65
2023/03/22 05:42:52;;;;;;;13.93;6.32;;;7.80;99.90;;;;;;4938712;28;20138;-67
2023/03/22 05:45:19;;;;;;;11.85;5.30;;;7.70;99.90;;;;;;4953570;28;20097;-67
2023/03/22 05:47:45;;;;;;;11.30;6.47;;;7.60;99.90;;;;;;4954504;28;20037;-67
2023/03/22 05:50:14;;;;;;;11.30;6.10;;;7.60;99.90;;;;;;4954558;28;20030;-65
2023/03/22 05:52:41;;;;;;;11.27;5.88;;;7.70;99.90;;;;;;4951994;28;20027;-64
2023/03/22 05:55:07;;;;;;;14.25;6.97;;;7.70;99.90;;;;;;4950844;28;20491;-67
2023/03/22 05:57:33;;;;;;;12.23;5.82;;;7.70;99.90;;;;;;4958027;28;20130;-67
2023/03/22 06:00:00;;;;;;;9.85;5.75;;;7.80;99.90;;;;;;4951200;28;20031;-67
2023/03/22 06:02:27;;;;;;;9.63;5.50;;;7.90;99.90;;;;;;4950017;28;20062;-65
2023/03/22 06:04:53;;;;;;;10.35;5.43;;;8.10;99.90;;;;;;4950008;28;20070;-64
2023/03/22 06:07:19;;;;;;;11.10;5.70;;;8.20;99.90;;;;;;4955502;28;20441;-65
2023/03/22 06:09:45;;;;;;;10.93;4.55;;;8.40;99.90;;;;;;4954724;28;20658;-64
2023/03/22 06:12:11;;;;;;;10.07;5.78;;;8.60;99.90;;;;;;4953181;28;20035;-67
2023/03/22 06:14:37;;;;;;;15.60;5.82;;;8.80;99.90;;;;;;4959685;28;20113;-67
2023/03/22 06:17:02;;;;;;;13.50;5.05;;;8.90;99.90;;;;;;4953658;28;20032;-67
2023/03/22 06:19:28;;;;;;;8.70;4.80;;;9.00;99.90;;;;;;4953746;28;20480;-66
2023/03/22 06:21:54;;;;;;;12.55;4.80;;;9.10;99.90;;;;;;4954483;28;20090;-67
2023/03/22 06:24:20;;;;;;;10.15;5.45;;;9.20;99.90;;;;;;4957831;28;20034;-67
2023/03/22 06:26:45;;;;;;;7.75;4.13;;;9.30;99.90;;;;;;4958582;28;20392;-67
2023/03/22 06:29:12;;;;;;;12.93;5.05;;;9.30;99.90;;;;;;4953242;28;20067;-67
2023/03/22 06:31:37;;;;;;;7.00;4.60;;;9.40;99.90;;;;;;4955900;28;20034;-67
2023/03/22 06:34:04;;;;;;;10.20;4.65;;;9.60;99.90;;;;;;4952565;28;20401;-66
2023/03/22 06:36:30;;;;;;;13.40;4.75;;;9.70;99.90;;;;;;4953758;28;20039;-66
2023/03/22 06:38:58;;;;;;;8.95;5.05;;;9.80;99.90;;;;;;4953278;28;20042;-67
2023/03/22 06:41:24;;;;;;;9.00;4.18;;;9.80;99.90;;;;;;4955417;28;20120;-67
2023/03/22 06:43:49;;;;;;;15.88;4.32;;;9.80;99.90;;;;;;4938943;28;20055;-67
2023/03/22 06:46:15;;;;;;;9.07;4.32;;;9.80;99.90;;;;;;4955119;28;20026;-66
2023/03/22 06:48:41;;;;;;;9.95;4.72;;;9.70;99.90;;;;;;4953952;28;20923;-66
2023/03/22 06:51:07;;;;;;;6.38;3.80;;;9.80;99.90;;;;;;4949772;28;20042;-66
2023/03/22 06:53:33;;;;;;;8.23;4.20;;;9.70;99.90;;;;;;4957168;28;20404;-67
2023/03/22 06:55:59;;;;;;;9.45;4.93;;;9.70;99.90;;;;;;4953517;28;20126;-66
2023/03/22 06:58:24;;;;;;;5.35;3.47;;;9.70;99.90;;;;;;4953411;28;20034;-66
2023/03/22 07:00:51;;;;;;;7.88;4.35;;;9.80;99.90;;;;;;4950303;28;20069;-67
2023/03/22 07:03:16;;;;;;;7.65;3.58;;;9.80;99.90;;;;;;4954336;28;20137;-67
2023/03/22 07:05:42;;;;;;;8.52;4.13;;;10.00;99.90;;;;;;4957180;28;20527;-67
2023/03/22 07:08:07;;;;;;;14.10;4.40;;;10.10;99.90;;;;;;4953006;28;20035;-67
2023/03/22 07:10:33;;;;;;;7.28;4.13;;;10.30;99.90;;;;;;4954771;28;20035;-67
2023/03/22 07:12:59;;;;;;;9.38;3.67;;;10.40;99.90;;;;;;4956096;28;20034;-67
2023/03/22 07:15:24;;;;;;;6.63;3.10;;;10.60;99.90;;;;;;4951850;28;20488;-67
2023/03/22 07:17:50;;;;;;;9.75;4.80;;;10.60;99.90;;;;;;4956127;28;20034;-66
2023/03/22 07:20:17;;;;;;;7.22;3.75;;;10.90;99.90;;;;;;4955196;28;21946;-67
2023/03/22 07:22:43;;;;;;;5.68;3.92;;;11.10;99.90;;;;;;4951086;28;20121;-67
2023/03/22 07:25:09;;;;;;;8.95;4.28;;;11.40;99.90;;;;;;4958652;28;20504;-67
2023/03/22 07:27:35;;;;;;;7.70;3.80;;;11.30;99.90;;;;;;4958196;28;20034;-66
2023/03/22 07:30:01;;;;;;;9.02;4.13;;;11.30;99.90;;;;;;4957227;28;20118;-67
2023/03/22 07:32:27;;;;;;;7.03;3.92;;;11.20;99.90;;;;;;4956755;28;20488;-67
2023/03/22 07:34:53;;;;;;;7.07;3.88;;;11.10;99.90;;;;;;4958277;28;20034;-67
2023/03/22 07:37:18;;;;;;;9.80;4.80;;;11.30;99.90;;;;;;4955252;28;20042;-67
2023/03/22 07:39:44;;;;;;;12.77;4.60;;;11.40;99.90;;;;;;4953862;28;20066;-67
2023/03/22 07:42:09;;;;;;;9.45;3.95;;;11.50;99.90;;;;;;4953546;28;20042;-67
2023/03/22 07:44:35;;;;;;;6.22;3.35;;;11.70;99.90;;;;;;4942707;28;20551;-66
2023/03/22 07:47:01;;;;;;;4.75;2.92;;;11.90;99.90;;;;;;4952685;28;20019;-67
2023/03/22 07:49:27;;;;;;;5.78;3.03;;;12.10;99.90;;;;;;4956903;28;20550;-67
2023/03/22 07:51:53;;;;;;;8.88;3.42;;;12.20;99.90;;;;;;4955662;28;20096;-67
2023/03/22 07:54:18;;;;;;;6.82;3.00;;;12.30;99.90;;;;;;4953067;28;20488;-67
2023/03/22 07:56:46;;;;;;;4.55;2.40;;;12.20;99.90;;;;;;4953177;28;20047;-67
2023/03/22 07:59:12;;;;;;;8.07;2.53;;;12.20;99.90;;;;;;4955981;28;20038;-67
2023/03/22 08:01:38;;;;;;;10.90;3.72;;;12.40;99.90;;;;;;4953549;28;20037;-67
2023/03/22 08:04:04;;;;;;;9.00;2.50;;;12.50;99.90;;;;;;4954782;28;20035;-67
2023/03/22 08:06:31;;;;;;;4.88;2.17;;;12.70;99.90;;;;;;4955497;28;20160;-67
2023/03/22 08:08:58;;;;;;;7.05;2.55;;;13.00;99.90;;;;;;4957083;28;20759;-67
2023/03/22 08:11:23;;;;;;;5.13;2.30;;;13.50;99.90;;;;;;4955531;28;20031;-68
2023/03/22 08:13:50;;;;;;;3.20;2.38;;;13.70;99.90;;;;;;4955277;28;20046;-67
2023/03/22 08:16:16;;;;;;;6.63;2.38;;;14.00;99.90;;;;;;4952286;28;20038;-67
2023/03/22 08:18:41;;;;;;;3.85;2.25;;;14.20;99.90;;;;;;4958597;28;20039;-67
2023/03/22 08:21:07;;;;;;;4.75;2.10;;;13.90;99.90;;;;;;4952909;28;20049;-67
2023/03/22 08:23:33;;;;;;;7.63;1.95;;;13.50;99.90;;;;;;4960478;28;20035;-66
2023/03/22 08:25:58;;;;;;;6.75;2.85;;;13.40;99.90;;;;;;4949648;28;20049;-66
2023/03/22 08:28:24;;;;;;;6.38;2.30;;;13.30;99.90;;;;;;4958456;28;20069;-67
2023/03/22 08:30:50;;;;;;;6.40;3.67;;;13.40;99.90;;;;;;4951533;28;20065;-67
2023/03/22 08:33:15;;;;;;;4.43;1.75;;;13.50;99.90;;;;;;4956905;28;20130;-67
2023/03/22 08:35:41;;;;;;;4.55;1.52;;;13.80;99.90;;;;;;4956921;28;20023;-67
2023/03/22 08:38:07;;;;;;;5.28;1.63;;;13.90;99.90;;;;;;4953158;28;20046;-67
2023/03/22 08:40:32;;;;;;;6.70;1.90;;;14.20;99.90;;;;;;4957323;28;20129;-67
2023/03/22 08:42:59;;;;;;;1.95;1.17;;;14.50;99.90;;;;;;4937294;28;20516;-67
2023/03/22 08:45:25;;;;;;;5.18;1.88;;;15.10;99.90;;;;;;4958056;28;20019;-67
2023/03/22 08:47:51;;;;;;;10.15;2.53;;;15.20;99.90;;;;;;4951537;28;20035;-68
2023/03/22 08:50:16;;;;;;;5.10;1.58;;;15.70;99.90;;;;;;4956320;28;20042;-67
2023/03/22 08:52:42;;;;;;;4.25;1.60;;;15.70;99.90;;;;;;4955267;28;20034;-66
2023/03/22 08:55:08;;;;;;;4.25;1.98;;;15.60;99.90;;;;;;4951759;28;20129;-65
2023/03/22 08:57:35;;;;;;;2.72;0.98;;;15.70;99.90;;;;;;4968075;28;20041;-65
2023/03/22 09:00:03;;;;;;;5.20;1.27;;;15.90;99.90;;;;;;4965173;28;20024;-65
2023/03/22 09:02:29;;;;;;;3.95;1.33;;;15.90;99.90;;;;;;4951672;28;20153;-67
2023/03/22 09:04:54;;;;;;;2.70;1.35;;;16.00;99.50;;;;;;4955364;28;20545;-68
2023/03/22 09:07:20;;;;;;;4.47;1.20;;;16.20;99.00;;;;;;4952692;28;20042;-67
2023/03/22 09:09:46;;;;;;;4.95;1.77;;;15.90;98.70;;;;;;4950308;28;20034;-67
2023/03/22 09:12:11;;;;;;;4.35;1.38;;;15.50;98.90;;;;;;4950341;28;20024;-67
2023/03/22 09:14:37;;;;;;;5.88;1.30;;;15.10;99.00;;;;;;4951865;28;20035;-67
2023/03/22 09:17:03;;;;;;;6.28;1.38;;;14.90;99.90;;;;;;4955160;28;20033;-67
2023/03/22 09:19:30;;;;;;;3.35;1.00;;;15.20;99.90;;;;;;4956665;28;20035;-68
2023/03/22 09:21:56;;;;;;;5.50;1.60;;;14.70;99.80;;;;;;4952048;28;20027;-67
2023/03/22 09:24:22;;;;;;;3.78;1.27;;;14.40;99.90;;;;;;4957501;28;20022;-67
2023/03/22 09:26:48;;;;;;;2.53;1.27;;;14.30;99.90;;;;;;4951151;28;20035;-67
2023/03/22 09:29:14;;;;;;;4.55;1.30;;;14.40;99.90;;;;;;4959189;28;20030;-67
2023/03/22 09:31:40;;;;;;;5.13;1.20;;;14.30;99.90;;;;;;5031488;23;20049;-62
2023/03/22 09:34:05;;;;;;;4.47;1.88;;;14.70;99.90;;;;;;5035470;28;20021;-63
2023/03/22 09:36:31;;;;;;;2.28;1.20;;;15.20;99.90;;;;;;5036156;28;20083;-63
2023/03/22 09:38:58;;;;;;;15.77;1.27;;;15.80;99.20;;;;;;5033435;28;20025;-63
2023/03/22 09:41:45;;;;;;;1.52;0.88;;;15.90;98.50;;;;;;5016433;28;20465;-64
2023/03/22 09:44:17;;;;;;;3.38;1.02;;;16.20;98.50;;;;;;5015786;28;20053;-62
2023/03/22 09:46:52;;;;;;;4.32;0.90;;;16.50;97.60;;;;;;5034684;28;20520;-64
2023/03/22 09:49:25;;;;;;;3.42;0.70;;;16.80;96.40;;;;;;5031937;28;20043;-63
2023/03/22 09:51:53;;;;;;;7.00;1.13;;;16.70;96.90;;;;;;5040357;28;20016;-62
2023/03/22 09:54:29;;;;;;;4.30;1.40;;;16.50;97.40;;;;;;5036997;28;20083;-63
2023/03/22 09:57:17;;;;;;;3.28;1.08;;;16.40;97.60;;;;;;5039212;28;20024;-63
2023/03/22 10:00:01;;;;;;;1.70;0.60;;;16.40;96.70;;;;;;5049153;28;20032;-64
2023/03/22 10:02:45;;;;;;;5.70;0.73;;;16.40;96.90;;;;;;5029313;28;20025;-63
2023/03/22 10:05:28;;;;;;;;;;;16.20;95.80;;;;;;5039655;28;20251;-61
2023/03/22 10:08:19;;;;;;;3.17;0.88;;;15.80;96.80;;;;;;5033850;28;19916;-63
2023/03/22 10:10:45;;;;;;;1.85;0.73;;;15.20;96.50;;;;;;5034430;28;20129;-63
2023/03/22 10:13:46;;;;;;;1.98;1.30;;;15.00;97.70;;;;;;5042003;28;20429;-62
2023/03/22 10:16:24;;;;;;;3.92;1.25;;;14.70;97.90;;;;;;5024590;28;20116;-62
2023/03/22 10:18:55;;;;;;;4.85;1.35;;;14.80;97.80;;;;;;5036466;28;20474;-63
2023/03/22 10:21:21;;;;;;;1.73;1.02;;;14.80;97.30;;;;;;5033686;28;20106;-63
2023/03/22 10:23:53;;;;;;;2.85;1.42;;;14.90;97.60;;;;;;5038268;28;20021;-64
2023/03/22 10:26:24;;;;;;;2.45;0.80;;;15.40;97.50;;;;;;5049356;28;20028;-64
2023/03/22 10:29:26;;;;;;;1.55;0.98;;;15.80;97.10;;;;;;5037306;28;20144;-62
2023/03/22 10:31:53;;;;;;;2.05;0.45;;;16.50;96.90;;;;;;5009796;28;20039;-64
2023/03/22 10:34:30;;;;;;;2.95;1.10;;;16.60;95.40;;;;;;5043510;28;20040;-64
2023/03/22 10:36:59;;;;;;;3.92;1.20;;;16.30;96.20;;;;;;5045164;28;20024;-64
2023/03/22 10:39:32;;;;;;;1.20;0.80;;;16.40;95.60;;;;;;5046046;28;20028;-64
2023/03/22 10:42:06;;;;;;;2.17;1.08;;;16.60;95.90;;;;;;5040611;28;20032;-64
2023/03/22 10:44:41;;;;;;;3.65;0.80;;;16.80;95.90;;;;;;5027830;28;20049;-64
2023/03/22 10:47:10;;;;;;;9.32;1.10;;;16.60;95.40;;;;;;5036961;28;20037;-63
2023/03/22 10:49:43;;;;;;;3.92;0.73;;;16.10;95.80;;;;;;5056361;28;20021;-63
2023/03/22 10:52:30;;;;;;;2.13;0.85;;;16.00;96.50;;;;;;5044967;28;20475;-63
2023/03/22 10:54:56;;;;;;;2.08;1.00;;;16.10;96.40;;;;;;5042351;28;20403;-63
2023/03/22 10:57:25;;;;;;;3.20;0.95;;;16.20;96.50;;;;;;5042834;28;20151;-64
2023/03/22 10:59:55;;;;;;;3.05;0.90;;;16.50;96.10;;;;;;5046544;28;20398;-64
2023/03/22 11:02:28;;;;;;;2.35;0.85;;;16.40;95.20;;;;;;5041268;28;20032;-64
2023/03/22 11:04:59;;;;;;;4.32;1.83;;;16.50;96.00;;;;;;5045641;28;20278;-64
2023/03/22 11:07:42;;;;;;;5.13;1.83;;;16.80;94.60;;;;;;5051555;28;20432;-64
2023/03/22 11:10:07;;;;;;;14.95;6.68;;;16.80;95.00;;;;;;5049299;28;21157;-64
2023/03/22 11:12:55;;;;;;;8.38;4.53;;;16.60;94.50;;;;;;5050687;28;20115;-64
2023/03/22 11:15:32;;;;;;;4.32;2.72;;;16.60;95.10;;;;;;5052453;28;20120;-62
2023/03/22 11:18:18;;;;;;;3.60;1.75;;;16.20;95.20;;;;;;5047548;28;20482;-63
2023/03/22 11:20:58;;;;;;;5.05;2.13;;;16.30;95.10;;;;;;5052091;28;20059;-64
2023/03/22 11:23:25;;;;;;;2.13;1.02;;;16.70;95.30;;;;;;5044061;28;20439;-64
2023/03/22 11:25:54;;;;;;;3.70;1.73;;;16.60;93.90;;;;;;5047839;28;20094;-64
2023/03/22 11:28:25;;;;;;;1.95;0.98;;;16.60;93.90;;;;;;5052266;28;20112;-64
2023/03/22 11:31:10;;;;;;;1.85;1.33;;;16.70;93.50;;;;;;5049719;28;20528;-63
2023/03/22 11:33:36;;;;;;;5.53;1.40;;;16.40;93.60;;;;;;5051918;28;20433;-63
2023/03/22 11:36:15;;;;;;;4.03;1.13;;;16.20;93.90;;;;;;5054879;28;20506;-63
2023/03/22 11:38:42;;;;;;;7.40;2.65;;;16.30;94.60;;;;;;5046518;28;20417;-63
2023/03/22 11:41:22;;;;;;;5.90;3.13;;;16.20;94.00;;;;;;5049744;28;20474;-63
2023/03/22 11:43:54;;;;;;;5.75;1.30;;;16.20;94.00;;;;;;5064951;28;20036;-64
2023/03/22 11:46:21;;;;;;;4.20;0.95;;;16.30;95.00;;;;;;5034276;28;20041;-64
2023/03/22 11:48:49;;;;;;;2.28;1.15;;;16.40;94.70;;;;;;5047535;28;20025;-64
2023/03/22 11:51:24;;;;;;;4.30;1.25;;;16.40;94.10;;;;;;5045302;28;20021;-62
2023/03/22 11:53:54;;;;;;;2.95;1.52;;;16.40;93.70;;;;;;5044041;28;20115;-64
2023/03/22 11:56:27;;;;;;;4.28;0.90;;;16.40;94.00;;;;;;5050401;28;20502;-64
2023/03/22 11:59:02;;;;;;;3.78;1.13;;;16.70;94.00;;;;;;5050362;28;20523;-64
2023/03/22 12:01:43;;;;;;;1.60;1.20;;;16.80;93.50;;;;;;5044448;28;20120;-64
2023/03/22 12:04:15;;;;;;;1.88;0.65;;;16.60;93.10;;;;;;5046719;28;20079;-63
2023/03/22 12:06:41;;;;;;;3.55;1.00;;;16.10;93.90;;;;;;5048803;28;20087;-64
2023/03/22 12:09:40;;;;;;;3.35;1.60;;;16.00;94.00;;;;;;5050956;28;20029;-64
2023/03/22 12:12:12;;;;;;;5.13;1.27;;;15.90;94.50;;;;;;5045191;28;20025;-63
2023/03/22 12:14:47;;;;;;;3.05;1.23;;;16.00;94.50;;;;;;5050912;28;20086;-64
2023/03/22 12:17:37;;;;;;;4.53;2.10;;;16.00;94.60;;;;;;5048395;28;20517;-64
2023/03/22 12:20:53;;;;;;;10.50;2.33;;;16.40;93.80;;;;;;5049264;28;20074;-65
2023/03/22 12:23:26;;;;;;;3.70;1.42;;;16.40;93.90;;;;;;5031276;28;20406;-64
2023/03/22 12:26:00;;;;;;;10.60;3.85;;;16.10;94.00;;;;;;5042102;28;20033;-64
2023/03/22 12:28:41;;;;;;;2.65;1.40;;;16.20;94.20;;;;;;5023639;28;20045;-64
2023/03/22 12:31:21;;;;;;;2.55;1.45;;;16.00;93.40;;;;;;5043670;28;20035;-64
2023/03/22 12:33:50;;;;;;;3.58;1.25;;;15.80;93.40;;;;;;5045161;28;20112;-64
2023/03/22 12:36:19;;;;;;;1.67;1.02;;;15.70;94.40;;;;;;5047917;28;20028;-64
2023/03/22 12:38:45;;;;;;;5.03;1.67;;;15.60;94.60;;;;;;5048376;28;20510;-64
2023/03/22 12:41:15;;;;;;;2.05;1.02;;;15.50;95.10;;;;;;5049903;28;20029;-63
2023/03/22 12:43:45;;;;;;;7.95;1.77;;;15.20;94.90;;;;;;5052090;28;20039;-64
2023/03/22 12:46:34;;;;;;;6.72;2.50;;;15.10;95.40;;;;;;5045468;28;20025;-63
2023/03/22 12:49:24;;;;;;;5.68;2.42;;;15.10;95.80;;;;;;5044007;28;20029;-64
2023/03/22 12:51:52;;;;;;;3.92;1.70;;;15.00;96.10;;;;;;5048795;28;20044;-64
2023/03/22 12:54:22;;;;;;;5.85;1.75;;;15.00;96.60;;;;;;5045897;28;20027;-64
2023/03/22 12:56:49;;;;;;;4.35;1.23;;;15.00;96.90;;;;;;5048107;28;20403;-65
2023/03/22 12:59:24;;;;;;;2.10;1.45;;;15.00;96.20;;;;;;5051811;28;20112;-64
2023/03/22 13:02:03;;;;;;;2.85;0.85;;;15.00;96.60;;;;;;5042010;28;20026;-64
2023/03/22 13:04:35;;;;;;;4.45;2.28;;;14.90;96.70;;;;;;5048022;28;20021;-64